Latest Weather Observations for Flinders Island Airport

IDT60801

Issued at 4:51 am EDT Friday 2 December 2022 (issued every 10 minutes, with the page automatically refreshed every 10 minutes)

About weather observations | Map of weather stations | Latest weather observations for TAS | Other Formats
Station Details ID: 099005 Name: FLINDERS ISLAND AIRPORT Lat: -40.09 Lon: 148.00 Height: 9.0 m
Data from the previous 72 hours. | See also: Recent months at Flinders Island Airport
Date/Time
EDT
Temp
°C
App
Temp
°C
Dew
Point
°C
Rel
Hum
%
Delta-T
°C
Wind Press
QNH
hPa
Press
MSL
hPa
Rain since
9am
mm
Dir  Spd
km/h
Gust
km/h
Spd
kts
Gust
kts
02/04:30am 13.3 11.9 11.0 86 1.2 ENE 9 11 5 6 1018.4 1018.3 0.0
02/04:00am 13.3 12.0 11.2 87 1.1 E 9 13 5 7 1018.5 1018.4 0.0
02/03:30am 12.9 12.1 11.6 92 0.7 ESE 7 11 4 6 1018.6 1018.5 0.0
02/03:00am 12.7 12.5 11.9 95 0.4 ENE 4 7 2 4 1018.7 1018.6 0.0
02/02:30am 12.9 11.8 12.1 95 0.4 ENE 9 13 5 7 1018.7 1018.6 0.0
02/02:00am 13.2 12.1 11.9 92 0.7 ENE 9 13 5 7 1018.9 1018.8 0.0
02/01:30am 13.6 11.2 11.3 86 1.2 ENE 15 19 8 10 1019.1 1019.0 0.0
02/01:00am 13.3 10.9 11.4 88 1.0 ENE 15 19 8 10 1019.2 1019.1 0.0
02/12:30am 13.2 11.1 11.3 88 1.0 ENE 13 17 7 9 1019.5 1019.4 0.0
02/12:00am 13.0 10.9 11.2 89 0.9 ENE 13 15 7 8 1019.6 1019.5 0.0
 
Date/Time
EDT
Temp
°C
App
Temp
°C
Dew
Point
°C
Rel
Hum
%
Delta-T
°C
Wind Press
QNH
hPa
Press
MSL
hPa
Rain since
9am
mm
Dir  Spd
km/h
Gust
km/h
Spd
kts
Gust
kts
01/11:30pm 12.2 9.8 11.3 94 0.5 ENE 15 17 8 9 1019.4 1019.3 0.0
01/11:00pm 12.9 10.3 10.8 87 1.1 E 15 24 8 13 1019.3 1019.2 0.0
01/10:30pm 12.9 10.1 11.3 90 0.8 E 17 22 9 12 1019.4 1019.3 0.0
01/10:00pm 12.4 11.7 12.1 98 0.2 E 7 11 4 6 1019.2 1019.1 0.0
01/09:30pm 13.1 11.7 12.2 94 0.5 ENE 11 17 6 9 1019.0 1018.9 0.0
01/09:00pm 13.4 12.8 12.3 93 0.6 ENE 7 7 4 4 1018.8 1018.7 0.0
01/08:30pm 13.5 12.4 13.2 98 0.2 ENE 11 15 6 8 1018.8 1018.7 0.0
01/08:00pm 14.2 12.1 12.4 89 1.0 ENE 15 19 8 10 1018.6 1018.5 0.0
01/07:30pm 15.0 12.9 11.2 78 2.0 ESE 13 19 7 10 1018.2 1018.1 0.0
01/07:00pm 15.4 15.4 11.2 76 2.2 SE 2 7 1 4 1017.7 1017.7 0.0
01/06:30pm 14.6 13.2 9.6 72 2.6 WNW 7 11 4 6 1017.6 1017.6 0.0
01/06:00pm 14.9 13.9 10.9 77 2.1 NW 7 9 4 5 1017.3 1017.3 0.0
01/05:30pm 14.3 12.5 9.5 73 2.5 NNW 9 9 5 5 1017.1 1017.1 0.0
01/05:00pm 14.1 12.7 8.9 71 2.6 SSW 6 11 3 6 1016.9 1016.9 0.0
01/04:30pm 14.1 12.3 9.3 73 2.5 S 9 13 5 7 1017.0 1017.0 0.0
01/04:00pm 14.5 12.4 8.2 66 3.1 SSW 9 11 5 6 1016.8 1016.8 0.0
01/03:30pm 15.5 12.9 9.2 66 3.2 SSW 13 17 7 9 1016.9 1016.9 0.0
01/03:00pm 16.5 13.7 10.1 66 3.4 SW 15 22 8 12 1016.9 1016.9 0.0
01/02:30pm 16.7 12.9 9.1 61 3.9 WSW 19 24 10 13 1016.9 1016.9 0.0
01/02:00pm 15.7 12.1 8.2 61 3.8 WSW 17 20 9 11 1016.8 1016.8 0.0
01/01:30pm 16.1 12.5 9.8 66 3.3 W 19 26 10 14 1017.0 1017.0 0.0
01/01:00pm 16.0 12.1 8.5 61 3.8 W 19 26 10 14 1017.1 1017.1 0.0
01/12:30pm 16.4 12.6 9.1 62 3.8 WSW 19 26 10 14 1017.0 1017.0 0.0
01/12:00pm 15.8 12.4 9.0 64 3.5 WSW 17 22 9 12 1016.9 1016.9 0.0
01/11:30am 15.7 12.3 9.1 65 3.4 WSW 17 20 9 11 1017.1 1017.1 0.0
01/11:00am 15.3 12.1 8.3 63 3.5 WSW 15 19 8 10 1017.3 1017.3 0.0
01/10:30am 15.2 11.3 8.7 65 3.3 WSW 19 24 10 13 1017.2 1017.2 0.0
01/10:00am 15.3 11.8 8.8 65 3.3 WSW 17 20 9 11 1017.1 1017.1 0.0
01/09:30am 14.9 11.5 9.1 68 3.0 WSW 17 22 9 12 1017.2 1017.2 0.0
01/09:00am 15.1 11.3 9.2 68 3.0 WSW 19 22 10 12 1017.2 1017.2 0.0
01/08:30am 14.9 11.2 9.5 70 2.8 WSW 19 22 10 12 1016.8 1016.8 0.0
01/08:00am 14.2 11.2 9.2 72 2.5 SW 15 19 8 10 1016.7 1016.7 0.0
01/07:30am 13.7 9.6 8.7 72 2.5 SW 20 28 11 15 1016.3 1016.3 0.0
01/07:00am 13.7 8.7 9.7 77 2.1 SW 26 32 14 17 1016.0 1016.0 0.0
01/06:30am 13.3 8.0 9.7 79 1.8 SW 28 33 15 18 1016.1 1016.1 0.0
01/06:00am 13.2 7.4 9.5 78 1.9 SW 30 35 16 19 1015.8 1015.8 0.0
01/05:30am 13.6 8.0 11.5 87 1.1 SW 32 37 17 20 1015.3 1015.3 0.0
01/05:00am 13.5 8.3 11.7 89 1.0 WSW 30 37 16 20 1015.1 1015.1 0.0
01/04:30am 13.6 8.0 12.2 91 0.8 WSW 33 39 18 21 1014.8 1014.8 0.0
01/04:00am 13.7 7.8 12.4 92 0.7 WSW 35 43 19 23 1014.8 1014.8 0.0
01/03:30am 13.6 7.9 11.7 88 1.0 WSW 33 41 18 22 1014.9 1014.9 0.0
01/03:00am 13.7 8.0 11.9 89 1.0 WSW 33 41 18 22 1014.9 1014.9 0.0
01/02:30am 14.0 8.3 11.0 82 1.6 WSW 32 37 17 20 1015.0 1015.0 0.0
01/02:00am 14.1 8.4 11.1 82 1.6 WSW 32 37 17 20 1015.1 1015.1 0.0
01/01:30am 14.1 8.9 11.6 85 1.3 WSW 30 35 16 19 1015.2 1015.2 0.0
01/01:00am 14.3 9.4 12.7 90 0.9 W 30 33 16 18 1015.3 1015.3 0.0
01/12:30am 14.3 9.5 12.9 91 0.8 WSW 30 37 16 20 1015.2 1015.2 0.0
01/12:00am 14.4 9.3 13.1 92 0.7 WSW 32 39 17 21 1015.4 1015.4 0.0
 
Date/Time
EDT
Temp
°C
App
Temp
°C
Dew
Point
°C
Rel
Hum
%
Delta-T
°C
Wind Press
QNH
hPa
Press
MSL
hPa
Rain since
9am
mm
Dir  Spd
km/h
Gust
km/h
Spd
kts
Gust
kts
30/11:30pm 14.5 9.4 13.2 92 0.7 WSW 32 37 17 20 1015.2 1015.2 0.0
30/11:00pm 14.5 9.4 13.7 95 0.4 W 33 41 18 22 1015.2 1015.2 0.0
30/10:30pm 14.4 9.3 13.6 95 0.4 W 33 39 18 21 1015.3 1015.3 0.0
30/10:00pm 14.3 10.5 13.5 95 0.4 W 26 35 14 19 1015.4 1015.4 0.0
30/09:30pm 14.3 9.6 13.2 93 0.6 W 30 41 16 22 1015.3 1015.3 0.0
30/09:00pm 14.3 10.4 13.2 93 0.6 W 26 37 14 20 1015.2 1015.2 0.0
30/08:30pm 14.4 9.6 12.8 90 0.9 WNW 30 37 16 20 1015.2 1015.2 0.0
30/08:00pm 14.7 9.4 12.4 86 1.3 W 32 37 17 20 1014.9 1014.9 0.0
30/07:30pm 15.2 10.2 12.3 83 1.6 WNW 30 35 16 19 1014.6 1014.6 0.0
30/07:00pm 15.4 9.9 12.0 80 1.8 WNW 32 39 17 21 1014.4 1014.4 0.0
30/06:30pm 15.6 9.8 11.6 77 2.2 WNW 33 44 18 24 1014.2 1014.2 0.0
30/06:00pm 15.8 10.0 11.6 76 2.3 WNW 33 46 18 25 1014.1 1014.1 0.0
30/05:30pm 16.2 10.6 12.0 76 2.3 WNW 33 41 18 22 1014.1 1014.1 0.0
30/05:00pm 16.5 10.9 12.1 75 2.4 W 33 43 18 23 1014.2 1014.2 0.0
30/04:30pm 16.1 10.2 11.3 73 2.6 W 33 41 18 22 1014.2 1014.2 0.0
30/04:00pm 16.4 10.5 11.3 72 2.7 W 33 41 18 22 1014.3 1014.3 0.0
30/03:30pm 16.7 10.6 11.8 73 2.7 WNW 35 41 19 22 1014.6 1014.6 0.0
30/03:21pm 16.5 10.7 11.6 73 2.7 WNW 33 41 18 22 1014.7 1014.7 0.0
30/03:00pm 16.8 10.6 11.5 71 2.9 W 35 44 19 24 1015.1 1015.1 0.0
30/02:35pm 16.7 10.2 11.6 72 2.8 W 37 46 20 25 1015.3 1015.3 0.0
30/02:30pm 16.4 10.3 11.8 74 2.5 W 35 46 19 25 1015.2 1015.2 0.0
30/02:00pm 17.4 11.8 12.1 71 2.9 W 33 43 18 23 1015.6 1015.6 0.0
30/01:31pm 16.3 10.0 11.2 72 2.7 W 35 44 19 24 1015.8 1015.8 0.0
30/01:30pm 16.4 10.1 11.1 71 2.8 W 35 44 19 24 1015.9 1015.9 0.0
30/01:14pm 16.1 10.0 11.7 75 2.4 W 35 43 19 23 1016.0 1016.0 0.0
30/01:00pm 15.3 8.0 11.7 79 1.9 W 41 52 22 28 1016.1 1016.1 0.0
30/12:30pm 16.6 9.2 11.1 70 3.0 W 41 50 22 27 1016.2 1016.2 0.0
30/12:00pm 16.1 8.7 11.3 73 2.6 W 41 48 22 26 1016.3 1016.3 0.0
30/11:30am 16.9 10.3 11.2 69 3.1 W 37 48 20 26 1016.5 1016.5 0.0
30/11:00am 16.7 10.2 10.5 67 3.3 W 35 44 19 24 1016.6 1016.6 0.0
30/10:30am 16.4 10.2 10.0 66 3.4 W 33 41 18 22 1016.6 1016.6 0.0
30/10:00am 16.2 9.9 9.8 66 3.3 W 33 41 18 22 1016.6 1016.6 0.0
30/09:30am 15.3 9.4 10.3 72 2.6 W 32 39 17 21 1016.8 1016.8 0.0
30/09:00am 14.8 8.7 10.6 76 2.2 W 33 41 18 22 1016.8 1016.8 0.0
30/08:30am 14.8 9.1 11.2 79 1.9 W 32 37 17 20 1016.6 1016.6 0.0
30/08:00am 14.5 8.6 10.5 77 2.1 W 32 39 17 21 1016.3 1016.3 0.0
30/07:30am 14.3 8.3 10.9 80 1.8 W 33 41 18 22 1016.1 1016.1 0.0
30/07:00am 13.8 7.8 10.0 78 2.0 W 32 37 17 20 1015.9 1015.9 0.0
30/06:30am 13.8 7.4 10.8 82 1.6 W 35 41 19 22 1015.7 1015.7 0.0
30/06:00am 13.7 8.0 11.0 84 1.4 WNW 32 39 17 21 1015.7 1015.7 0.0
30/05:30am 13.5 7.4 10.3 81 1.7 WNW 33 44 18 24 1015.4 1015.4 0.0
30/05:00am 13.2 7.7 10.7 85 1.3 WNW 30 39 16 21 1015.2 1015.2 0.0
30/04:30am 12.9 6.8 10.3 84 1.3 W 33 43 18 23 1015.1 1015.1 0.0
30/04:00am 12.9 7.9 9.5 80 1.7 W 26 35 14 19 1015.0 1015.0 0.0
30/03:30am 12.9 7.5 9.4 79 1.8 W 28 39 15 21 1015.0 1015.0 0.0
30/03:00am 12.9 6.9 8.8 76 2.1 W 30 37 16 20 1015.0 1015.0 0.0
30/02:30am 13.1 6.6 8.8 75 2.2 W 33 39 18 21 1014.9 1014.9 0.0
30/02:00am 13.1 6.0 8.2 72 2.4 WSW 35 41 19 22 1015.1 1015.1 0.0
30/01:30am 13.1 6.0 8.2 72 2.4 WSW 35 43 19 23 1015.2 1015.2 0.0
30/01:00am 13.2 5.6 9.1 76 2.1 WSW 39 46 21 25 1015.1 1015.1 0.0
30/12:30am 13.2 5.7 9.3 77 2.0 WSW 39 46 21 25 1014.8 1014.8 0.0
30/12:00am 13.3 6.5 9.2 76 2.1 WSW 35 43 19 23 1015.2 1015.2 0.0
 
Date/Time
EDT
Temp
°C
App
Temp
°C
Dew
Point
°C
Rel
Hum
%
Delta-T
°C
Wind Press
QNH
hPa
Press
MSL
hPa
Rain since
9am
mm
Dir  Spd
km/h
Gust
km/h
Spd
kts
Gust
kts
29/11:30pm 13.2 6.4 9.3 77 2.0 WSW 35 43 19 23 1015.4 1015.4 0.0
29/11:00pm 13.2 6.3 8.7 74 2.3 W 35 46 19 25 1015.6 1015.6 0.0
29/10:30pm 13.3 6.0 8.8 74 2.3 W 37 48 20 26 1015.6 1015.6 0.0
29/10:00pm 13.4 4.8 8.3 71 2.5 W 43 52 23 28 1015.4 1015.4 0.0
29/09:30pm 13.5 6.4 8.1 70 2.7 W 35 48 19 26 1015.4 1015.4 0.0
29/09:00pm 13.4 6.1 8.7 73 2.4 W 37 50 20 27 1015.1 1015.1 0.0
29/08:30pm 13.6 6.3 8.9 73 2.4 W 37 48 20 26 1015.0 1015.0 0.0
29/08:00pm 14.0 5.8 9.8 76 2.2 W 43 52 23 28 1014.6 1014.6 0.0
29/07:30pm 14.4 5.3 8.6 68 2.9 W 46 56 25 30 1014.2 1014.2 0.0
29/07:00pm 14.8 5.8 8.7 67 3.1 W 46 56 25 30 1013.9 1013.9 0.0
29/06:30pm 15.0 6.5 8.5 65 3.3 W 43 50 23 27 1013.7 1013.7 0.0
29/06:00pm 15.2 6.2 8.7 65 3.3 W 46 56 25 30 1013.4 1013.4 0.0
29/05:30pm 15.5 6.5 9.0 65 3.3 W 46 57 25 31 1013.5 1013.5 0.0
29/05:00pm 15.6 6.5 8.4 62 3.6 W 46 54 25 29 1013.3 1013.3 0.0
29/04:30pm 15.8 6.8 8.8 63 3.6 W 46 56 25 30 1013.1 1013.1 0.0
29/04:00pm 15.5 6.5 7.3 58 4.1 W 44 52 24 28 1012.9 1012.9 0.0
29/03:30pm 16.3 7.4 7.8 57 4.3 W 44 54 24 29 1012.9 1012.9 0.0
29/03:00pm 15.9 5.9 7.9 59 4.0 WSW 50 59 27 32 1012.8 1012.8 0.0
29/02:30pm 16.4 7.9 8.6 60 4.0 W 43 54 23 29 1012.8 1012.8 0.0
29/02:00pm 16.6 7.3 7.5 55 4.6 WSW 46 59 25 32 1012.6 1012.6 0.0
29/01:30pm 16.0 6.2 7.2 56 4.4 WSW 48 57 26 31 1012.3 1012.3 0.0
29/01:00pm 15.9 6.6 7.4 57 4.2 WSW 46 54 25 29 1012.4 1012.4 0.0
29/12:30pm 15.3 6.1 7.8 61 3.7 WSW 46 56 25 30 1012.5 1012.5 0.0
29/12:00pm 16.1 7.5 8.8 62 3.7 WSW 44 56 24 30 1012.2 1012.2 0.0
29/11:30am 15.3 6.4 7.8 61 3.7 WSW 44 54 24 29 1012.1 1012.1 0.0
29/11:00am 14.8 5.5 7.4 61 3.7 WSW 46 59 25 32 1011.6 1011.6 0.0
29/10:30am 14.7 5.3 7.3 61 3.6 WSW 46 56 25 30 1011.2 1011.2 0.0
29/10:00am 14.1 3.6 7.2 63 3.4 WSW 52 61 28 33 1011.1 1011.1 0.0
29/09:30am 14.2 4.6 6.3 59 3.8 WSW 46 57 25 31 1010.7 1010.7 0.0
29/09:00am 14.1 4.6 6.9 62 3.5 WSW 46 57 25 31 1010.2 1010.2 4.6
29/08:30am 13.2 3.7 6.5 64 3.2 WSW 46 56 25 30 1009.9 1009.9 4.6
29/08:00am 12.9 3.0 6.7 66 3.0 WSW 48 57 26 31 1009.3 1009.3 4.6
29/07:30am 12.9 3.2 6.0 63 3.3 WSW 46 59 25 32 1008.7 1008.7 4.6
29/07:00am 12.7 2.7 6.1 64 3.1 WSW 48 57 26 31 1008.1 1008.1 4.6
29/06:30am 12.2 1.3 5.6 64 3.1 WSW 52 61 28 33 1007.6 1007.6 4.6
29/06:00am 12.4 2.1 6.5 67 2.8 WSW 50 61 27 33 1007.1 1007.1 4.6
29/05:30am 12.1 2.0 7.2 72 2.4 WSW 50 61 27 33 1006.6 1006.6 4.6
29/05:00am 12.2 2.3 8.1 76 2.0 WSW 50 59 27 32 1006.1 1006.1 4.6

Other formats

Comma delimited format used in spreadsheet applications
http://www.bom.gov.au/fwo/IDT60801/IDT60801.94980.axf

JavaScript Object Notation format (JSON) in row-major order
http://www.bom.gov.au/fwo/IDT60801/IDT60801.94980.json

Data quality

Most of these data are generated automatically and are frequently updated. Quality checks on data are not normally performed. It is possible for incorrect values to appear. Refer to information at About Latest Weather Observations and please check the disclaimer before using these data.